sensor_id;sensor_type;location;lat;lon;timestamp;pressure;altitude;pressure_sealevel;temperature;humidity
68822;BME280;55834;50.870;4.606;2023-03-18T00:00:28;100143.75;;;11.28;57.85
68822;BME280;55834;50.870;4.606;2023-03-18T00:02:53;100138.53;;;11.27;58.33
68822;BME280;55834;50.870;4.606;2023-03-18T00:05:19;100134.56;;;11.37;58.23
68822;BME280;55834;50.870;4.606;2023-03-18T00:07:45;100116.56;;;11.47;57.94
68822;BME280;55834;50.870;4.606;2023-03-18T00:10:12;100104.50;;;11.82;57.95
68822;BME280;55834;50.870;4.606;2023-03-18T00:12:39;100121.78;;;11.70;57.02
68822;BME280;55834;50.870;4.606;2023-03-18T00:15:07;100124.94;;;11.79;57.79
68822;BME280;55834;50.870;4.606;2023-03-18T00:17:32;100112.25;;;12.07;57.29
68822;BME280;55834;50.870;4.606;2023-03-18T00:19:58;100111.41;;;12.26;56.59
68822;BME280;55834;50.870;4.606;2023-03-18T00:22:30;100110.25;;;12.31;55.54
68822;BME280;55834;50.870;4.606;2023-03-18T00:24:56;100110.84;;;12.38;55.82
68822;BME280;55834;50.870;4.606;2023-03-18T00:27:21;100121.13;;;12.44;55.49
68822;BME280;55834;50.870;4.606;2023-03-18T00:29:46;100121.66;;;12.33;55.23
68822;BME280;55834;50.870;4.606;2023-03-18T00:32:12;100113.47;;;12.19;56.46
68822;BME280;55834;50.870;4.606;2023-03-18T00:34:37;100120.19;;;12.26;56.64
68822;BME280;55834;50.870;4.606;2023-03-18T00:37:03;100114.56;;;12.34;55.97
68822;BME280;55834;50.870;4.606;2023-03-18T00:39:29;100119.78;;;12.35;55.64
68822;BME280;55834;50.870;4.606;2023-03-18T00:41:57;100119.63;;;12.38;55.65
68822;BME280;55834;50.870;4.606;2023-03-18T00:44:23;100135.38;;;12.41;55.47
68822;BME280;55834;50.870;4.606;2023-03-18T00:46:50;100146.19;;;12.37;55.64
68822;BME280;55834;50.870;4.606;2023-03-18T00:49:16;100144.59;;;12.33;55.57
68822;BME280;55834;50.870;4.606;2023-03-18T00:51:41;100147.50;;;12.27;55.55
68822;BME280;55834;50.870;4.606;2023-03-18T00:54:11;100146.66;;;12.26;55.66
68822;BME280;55834;50.870;4.606;2023-03-18T00:56:37;100149.53;;;12.01;55.74
68822;BME280;55834;50.870;4.606;2023-03-18T00:59:04;100157.84;;;11.71;57.04
68822;BME280;55834;50.870;4.606;2023-03-18T01:01:30;100156.53;;;11.61;57.44
68822;BME280;55834;50.870;4.606;2023-03-18T01:03:56;100153.06;;;11.81;57.48
68822;BME280;55834;50.870;4.606;2023-03-18T01:06:27;100157.88;;;11.92;57.01
68822;BME280;55834;50.870;4.606;2023-03-18T01:08:53;100161.25;;;11.95;56.26
68822;BME280;55834;50.870;4.606;2023-03-18T01:11:20;100158.34;;;12.02;57.00
68822;BME280;55834;50.870;4.606;2023-03-18T01:13:46;100160.38;;;11.95;57.01
68822;BME280;55834;50.870;4.606;2023-03-18T01:16:11;100162.03;;;11.97;56.84
68822;BME280;55834;50.870;4.606;2023-03-18T01:18:38;100163.81;;;11.97;56.54
68822;BME280;55834;50.870;4.606;2023-03-18T01:21:04;100171.63;;;11.80;56.95
68822;BME280;55834;50.870;4.606;2023-03-18T01:23:29;100159.97;;;11.84;57.28
68822;BME280;55834;50.870;4.606;2023-03-18T01:25:56;100161.84;;;11.82;57.44
68822;BME280;55834;50.870;4.606;2023-03-18T01:28:22;100160.91;;;11.83;57.45
68822;BME280;55834;50.870;4.606;2023-03-18T01:30:48;100160.91;;;11.83;57.74
68822;BME280;55834;50.870;4.606;2023-03-18T01:33:14;100153.66;;;11.88;57.53
68822;BME280;55834;50.870;4.606;2023-03-18T01:35:40;100153.38;;;11.94;56.82
68822;BME280;55834;50.870;4.606;2023-03-18T01:38:07;100162.88;;;11.78;56.67
68822;BME280;55834;50.870;4.606;2023-03-18T01:40:34;100159.59;;;11.72;57.15
68822;BME280;55834;50.870;4.606;2023-03-18T01:43:19;100169.16;;;11.75;57.77
68822;BME280;55834;50.870;4.606;2023-03-18T01:45:50;100172.75;;;11.74;57.54
68822;BME280;55834;50.870;4.606;2023-03-18T01:48:21;100166.59;;;11.73;57.82
68822;BME280;55834;50.870;4.606;2023-03-18T01:50:52;100162.16;;;11.74;57.27
68822;BME280;55834;50.870;4.606;2023-03-18T01:53:20;100160.75;;;11.65;57.34
68822;BME280;55834;50.870;4.606;2023-03-18T01:55:46;100154.56;;;11.44;58.21
68822;BME280;55834;50.870;4.606;2023-03-18T01:58:17;100157.22;;;11.44;58.54
68822;BME280;55834;50.870;4.606;2023-03-18T02:00:48;100161.75;;;11.41;58.77
68822;BME280;55834;50.870;4.606;2023-03-18T02:03:15;100163.53;;;11.40;58.63
68822;BME280;55834;50.870;4.606;2023-03-18T02:05:42;100161.25;;;11.53;58.75
68822;BME280;55834;50.870;4.606;2023-03-18T02:08:08;100160.97;;;11.39;58.94
68822;BME280;55834;50.870;4.606;2023-03-18T02:10:34;100164.38;;;10.75;60.25
68822;BME280;55834;50.870;4.606;2023-03-18T02:13:06;100162.09;;;10.88;60.08
68822;BME280;55834;50.870;4.606;2023-03-18T02:15:33;100159.91;;;10.99;60.31
68822;BME280;55834;50.870;4.606;2023-03-18T02:18:15;100156.19;;;11.26;59.87
68822;BME280;55834;50.870;4.606;2023-03-18T02:26:59;100152.84;;;10.99;60.40
68822;BME280;55834;50.870;4.606;2023-03-18T02:29:27;100149.59;;;10.93;60.23
68822;BME280;55834;50.870;4.606;2023-03-18T02:31:55;100156.53;;;11.17;60.60
68822;BME280;55834;50.870;4.606;2023-03-18T02:34:23;100158.44;;;11.14;59.42
68822;BME280;55834;50.870;4.606;2023-03-18T02:36:49;100158.06;;;11.01;60.29
68822;BME280;55834;50.870;4.606;2023-03-18T02:39:16;100152.38;;;11.12;60.64
68822;BME280;55834;50.870;4.606;2023-03-18T02:41:41;100149.06;;;11.06;60.47
68822;BME280;55834;50.870;4.606;2023-03-18T02:44:10;100156.16;;;11.04;59.38
68822;BME280;55834;50.870;4.606;2023-03-18T02:46:53;100157.25;;;10.77;60.16
68822;BME280;55834;50.870;4.606;2023-03-18T02:49:21;100169.69;;;10.73;60.46
68822;BME280;55834;50.870;4.606;2023-03-18T02:51:49;100175.84;;;10.74;60.69
68822;BME280;55834;50.870;4.606;2023-03-18T02:54:19;100182.91;;;10.50;61.15
68822;BME280;55834;50.870;4.606;2023-03-18T02:56:45;100174.94;;;10.51;61.59
68822;BME280;55834;50.870;4.606;2023-03-18T02:59:11;100172.81;;;10.36;62.05
68822;BME280;55834;50.870;4.606;2023-03-18T03:01:38;100174.31;;;10.68;61.90
68822;BME280;55834;50.870;4.606;2023-03-18T03:04:04;100168.59;;;10.79;60.37
68822;BME280;55834;50.870;4.606;2023-03-18T03:06:32;100165.06;;;10.80;60.52
68822;BME280;55834;50.870;4.606;2023-03-18T03:08:58;100174.31;;;10.43;61.50
68822;BME280;55834;50.870;4.606;2023-03-18T03:11:26;100171.75;;;10.65;61.25
68822;BME280;55834;50.870;4.606;2023-03-18T03:13:52;100169.59;;;10.53;60.75
68822;BME280;55834;50.870;4.606;2023-03-18T03:16:17;100165.72;;;10.13;61.60
68822;BME280;55834;50.870;4.606;2023-03-18T03:18:43;100173.34;;;10.22;61.69
68822;BME280;55834;50.870;4.606;2023-03-18T03:21:09;100168.06;;;10.22;61.90
68822;BME280;55834;50.870;4.606;2023-03-18T03:23:36;100168.50;;;10.58;61.37
68822;BME280;55834;50.870;4.606;2023-03-18T03:26:02;100180.72;;;10.61;59.70
68822;BME280;55834;50.870;4.606;2023-03-18T03:28:28;100187.50;;;10.68;59.59
68822;BME280;55834;50.870;4.606;2023-03-18T03:30:55;100185.41;;;10.76;59.33
68822;BME280;55834;50.870;4.606;2023-03-18T03:33:21;100191.72;;;9.99;60.50
68822;BME280;55834;50.870;4.606;2023-03-18T03:35:47;100191.72;;;10.24;61.85
68822;BME280;55834;50.870;4.606;2023-03-18T03:38:12;100184.78;;;10.21;60.01
68822;BME280;55834;50.870;4.606;2023-03-18T03:40:37;100193.78;;;10.15;60.74
68822;BME280;55834;50.870;4.606;2023-03-18T03:43:04;100197.81;;;10.01;61.02
68822;BME280;55834;50.870;4.606;2023-03-18T03:45:29;100197.13;;;10.21;61.08
68822;BME280;55834;50.870;4.606;2023-03-18T03:47:55;100192.69;;;10.21;60.27
68822;BME280;55834;50.870;4.606;2023-03-18T03:50:20;100207.03;;;10.14;60.06
68822;BME280;55834;50.870;4.606;2023-03-18T03:52:46;100201.66;;;10.17;60.35
68822;BME280;55834;50.870;4.606;2023-03-18T03:55:14;100197.47;;;10.35;60.19
68822;BME280;55834;50.870;4.606;2023-03-18T03:57:40;100196.25;;;10.20;58.88
68822;BME280;55834;50.870;4.606;2023-03-18T04:00:09;100205.13;;;10.17;59.79
68822;BME280;55834;50.870;4.606;2023-03-18T04:02:40;100207.03;;;10.14;59.59
68822;BME280;55834;50.870;4.606;2023-03-18T04:05:06;100198.94;;;10.18;59.60
68822;BME280;55834;50.870;4.606;2023-03-18T04:07:32;100208.22;;;10.05;60.22
68822;BME280;55834;50.870;4.606;2023-03-18T04:09:57;100203.22;;;10.23;59.82
68822;BME280;55834;50.870;4.606;2023-03-18T04:12:22;100207.41;;;10.28;58.94
68822;BME280;55834;50.870;4.606;2023-03-18T04:14:48;100210.53;;;10.39;59.16
68822;BME280;55834;50.870;4.606;2023-03-18T04:17:14;100217.00;;;9.79;59.84
68822;BME280;55834;50.870;4.606;2023-03-18T04:19:39;100205.22;;;9.89;60.82
68822;BME280;55834;50.870;4.606;2023-03-18T04:22:04;100198.16;;;9.90;60.33
68822;BME280;55834;50.870;4.606;2023-03-18T04:24:30;100199.34;;;10.08;59.35
68822;BME280;55834;50.870;4.606;2023-03-18T04:26:56;100216.09;;;10.30;58.99
68822;BME280;55834;50.870;4.606;2023-03-18T04:29:22;100223.00;;;10.34;57.99
68822;BME280;55834;50.870;4.606;2023-03-18T04:31:47;100221.97;;;10.38;57.20
68822;BME280;55834;50.870;4.606;2023-03-18T04:34:13;100212.69;;;10.28;57.12
68822;BME280;55834;50.870;4.606;2023-03-18T04:36:38;100207.81;;;10.16;57.64
68822;BME280;55834;50.870;4.606;2023-03-18T04:39:03;100207.88;;;10.14;59.44
68822;BME280;55834;50.870;4.606;2023-03-18T04:41:29;100214.84;;;10.17;58.86
68822;BME280;55834;50.870;4.606;2023-03-18T04:43:55;100220.78;;;9.97;58.05
68822;BME280;55834;50.870;4.606;2023-03-18T04:46:21;100217.44;;;9.92;59.51
68822;BME280;55834;50.870;4.606;2023-03-18T04:48:47;100218.06;;;10.00;59.42
68822;BME280;55834;50.870;4.606;2023-03-18T04:51:12;100219.50;;;10.09;59.16
68822;BME280;55834;50.870;4.606;2023-03-18T04:53:38;100224.25;;;9.99;58.60
68822;BME280;55834;50.870;4.606;2023-03-18T04:56:04;100221.88;;;9.91;58.60
68822;BME280;55834;50.870;4.606;2023-03-18T04:58:30;100214.81;;;9.92;58.68
68822;BME280;55834;50.870;4.606;2023-03-18T05:00:55;100236.41;;;9.50;59.72
68822;BME280;55834;50.870;4.606;2023-03-18T05:03:21;100232.72;;;8.98;61.60
68822;BME280;55834;50.870;4.606;2023-03-18T05:05:47;100235.09;;;8.76;62.19
68822;BME280;55834;50.870;4.606;2023-03-18T05:08:13;100226.56;;;8.68;63.30
68822;BME280;55834;50.870;4.606;2023-03-18T05:10:39;100234.44;;;8.99;62.45
68822;BME280;55834;50.870;4.606;2023-03-18T05:13:05;100241.09;;;8.81;62.09
68822;BME280;55834;50.870;4.606;2023-03-18T05:15:32;100242.59;;;9.19;62.81
68822;BME280;55834;50.870;4.606;2023-03-18T05:17:58;100248.34;;;9.62;62.49
68822;BME280;55834;50.870;4.606;2023-03-18T05:20:24;100240.41;;;9.35;61.10
68822;BME280;55834;50.870;4.606;2023-03-18T05:22:49;100243.97;;;9.03;62.43
68822;BME280;55834;50.870;4.606;2023-03-18T05:25:15;100233.31;;;8.47;64.36
68822;BME280;55834;50.870;4.606;2023-03-18T05:27:41;100247.31;;;9.08;63.47
68822;BME280;55834;50.870;4.606;2023-03-18T05:30:08;100245.91;;;8.67;64.29
68822;BME280;55834;50.870;4.606;2023-03-18T05:32:35;100251.00;;;9.02;63.83
68822;BME280;55834;50.870;4.606;2023-03-18T05:35:02;100245.19;;;8.91;63.25
68822;BME280;55834;50.870;4.606;2023-03-18T05:37:28;100234.28;;;8.74;63.51
68822;BME280;55834;50.870;4.606;2023-03-18T05:39:53;100239.53;;;8.74;65.19
68822;BME280;55834;50.870;4.606;2023-03-18T05:42:19;100243.31;;;8.65;64.52
68822;BME280;55834;50.870;4.606;2023-03-18T05:44:45;100238.75;;;9.01;63.48
68822;BME280;55834;50.870;4.606;2023-03-18T05:47:10;100235.41;;;9.24;62.94
68822;BME280;55834;50.870;4.606;2023-03-18T05:49:36;100240.06;;;9.16;62.84
68822;BME280;55834;50.870;4.606;2023-03-18T05:52:01;100242.72;;;8.85;62.70
68822;BME280;55834;50.870;4.606;2023-03-18T05:54:27;100246.56;;;9.04;62.33
68822;BME280;55834;50.870;4.606;2023-03-18T05:56:53;100248.34;;;8.74;63.23
68822;BME280;55834;50.870;4.606;2023-03-18T05:59:19;100248.88;;;9.15;63.21
68822;BME280;55834;50.870;4.606;2023-03-18T06:01:46;100257.94;;;9.05;61.75
68822;BME280;55834;50.870;4.606;2023-03-18T06:04:13;100255.53;;;9.27;62.34
68822;BME280;55834;50.870;4.606;2023-03-18T06:06:39;100255.84;;;9.16;62.54
68822;BME280;55834;50.870;4.606;2023-03-18T06:09:10;100257.09;;;9.34;61.42
68822;BME280;55834;50.870;4.606;2023-03-18T06:11:37;100253.28;;;9.44;61.55
68822;BME280;55834;50.870;4.606;2023-03-18T06:14:05;100264.22;;;9.31;61.20
68822;BME280;55834;50.870;4.606;2023-03-18T06:16:31;100261.56;;;9.31;60.80
68822;BME280;55834;50.870;4.606;2023-03-18T06:18:58;100263.53;;;9.24;61.02
68822;BME280;55834;50.870;4.606;2023-03-18T06:21:24;100263.03;;;9.41;61.37
68822;BME280;55834;50.870;4.606;2023-03-18T06:23:50;100255.53;;;9.57;60.74
68822;BME280;55834;50.870;4.606;2023-03-18T06:26:15;100266.72;;;9.63;60.17
68822;BME280;55834;50.870;4.606;2023-03-18T06:28:41;100270.53;;;9.25;61.33
68822;BME280;55834;50.870;4.606;2023-03-18T06:31:06;100275.59;;;9.31;61.39
68822;BME280;55834;50.870;4.606;2023-03-18T06:33:32;100277.88;;;9.43;61.80
68822;BME280;55834;50.870;4.606;2023-03-18T06:35:58;100284.38;;;9.61;61.66
68822;BME280;55834;50.870;4.606;2023-03-18T06:38:25;100280.38;;;9.76;60.67
68822;BME280;55834;50.870;4.606;2023-03-18T06:40:51;100284.59;;;9.82;59.90
68822;BME280;55834;50.870;4.606;2023-03-18T06:43:17;100282.91;;;9.53;60.66
68822;BME280;55834;50.870;4.606;2023-03-18T06:45:42;100285.53;;;9.53;61.21
68822;BME280;55834;50.870;4.606;2023-03-18T06:48:08;100284.72;;;9.51;62.68
68822;BME280;55834;50.870;4.606;2023-03-18T06:50:34;100281.84;;;9.58;61.46
68822;BME280;55834;50.870;4.606;2023-03-18T06:53:01;100279.13;;;9.88;61.09
68822;BME280;55834;50.870;4.606;2023-03-18T06:55:26;100273.75;;;9.91;60.46
68822;BME280;55834;50.870;4.606;2023-03-18T06:57:52;100278.56;;;10.05;59.86
68822;BME280;55834;50.870;4.606;2023-03-18T07:00:18;100286.47;;;9.50;60.13
68822;BME280;55834;50.870;4.606;2023-03-18T07:02:44;100281.25;;;9.77;60.38
68822;BME280;55834;50.870;4.606;2023-03-18T07:05:10;100284.31;;;9.89;60.06
68822;BME280;55834;50.870;4.606;2023-03-18T07:07:37;100282.19;;;10.01;60.93
68822;BME280;55834;50.870;4.606;2023-03-18T07:10:05;100288.94;;;10.09;60.63
68822;BME280;55834;50.870;4.606;2023-03-18T07:12:30;100287.25;;;10.33;60.71
68822;BME280;55834;50.870;4.606;2023-03-18T07:14:56;100295.28;;;10.04;60.73
68822;BME280;55834;50.870;4.606;2023-03-18T07:17:22;100282.66;;;10.38;61.50
68822;BME280;55834;50.870;4.606;2023-03-18T07:19:47;100287.88;;;10.15;60.89
68822;BME280;55834;50.870;4.606;2023-03-18T07:22:13;100292.06;;;10.22;61.82
68822;BME280;55834;50.870;4.606;2023-03-18T07:24:41;100287.03;;;10.66;60.84
68822;BME280;55834;50.870;4.606;2023-03-18T07:27:08;100293.59;;;11.03;59.81
68822;BME280;55834;50.870;4.606;2023-03-18T07:29:33;100291.75;;;11.05;60.00
68822;BME280;55834;50.870;4.606;2023-03-18T07:31:59;100296.75;;;10.89;59.41
68822;BME280;55834;50.870;4.606;2023-03-18T07:34:26;100301.53;;;11.03;60.10
68822;BME280;55834;50.870;4.606;2023-03-18T07:36:51;100306.91;;;11.00;59.08
68822;BME280;55834;50.870;4.606;2023-03-18T07:39:17;100303.06;;;11.08;59.03
68822;BME280;55834;50.870;4.606;2023-03-18T07:41:42;100296.50;;;10.72;59.48
68822;BME280;55834;50.870;4.606;2023-03-18T07:44:08;100310.69;;;10.69;60.22
68822;BME280;55834;50.870;4.606;2023-03-18T07:46:33;100297.84;;;11.07;59.22
68822;BME280;55834;50.870;4.606;2023-03-18T07:48:59;100298.66;;;10.86;59.57
68822;BME280;55834;50.870;4.606;2023-03-18T07:51:25;100294.72;;;11.19;58.28
68822;BME280;55834;50.870;4.606;2023-03-18T07:53:50;100293.84;;;11.20;58.16
68822;BME280;55834;50.870;4.606;2023-03-18T07:56:16;100298.41;;;11.39;57.64
68822;BME280;55834;50.870;4.606;2023-03-18T07:58:41;100296.38;;;11.45;56.60
68822;BME280;55834;50.870;4.606;2023-03-18T08:01:08;100298.75;;;11.29;57.33
68822;BME280;55834;50.870;4.606;2023-03-18T08:03:34;100304.59;;;11.14;57.72
68822;BME280;55834;50.870;4.606;2023-03-18T08:05:59;100302.75;;;10.69;59.63
68822;BME280;55834;50.870;4.606;2023-03-18T08:08:26;100301.56;;;10.78;58.91
68822;BME280;55834;50.870;4.606;2023-03-18T08:10:56;100311.50;;;10.71;59.44
68822;BME280;55834;50.870;4.606;2023-03-18T08:13:21;100310.69;;;10.93;61.38
68822;BME280;55834;50.870;4.606;2023-03-18T08:15:46;100309.94;;;11.60;59.43
68822;BME280;55834;50.870;4.606;2023-03-18T08:18:12;100312.88;;;11.05;59.34
68822;BME280;55834;50.870;4.606;2023-03-18T08:20:37;100304.41;;;11.42;59.05
68822;BME280;55834;50.870;4.606;2023-03-18T08:23:03;100303.81;;;10.89;59.96
68822;BME280;55834;50.870;4.606;2023-03-18T08:25:29;100303.81;;;11.36;60.99
68822;BME280;55834;50.870;4.606;2023-03-18T08:27:54;100314.50;;;11.55;57.85
68822;BME280;55834;50.870;4.606;2023-03-18T08:30:20;100308.16;;;11.60;57.63
68822;BME280;55834;50.870;4.606;2023-03-18T08:32:49;100310.38;;;11.71;58.01
68822;BME280;55834;50.870;4.606;2023-03-18T08:35:14;100325.00;;;11.58;58.72
68822;BME280;55834;50.870;4.606;2023-03-18T08:37:41;100319.63;;;11.61;58.28
68822;BME280;55834;50.870;4.606;2023-03-18T08:40:07;100325.63;;;11.17;58.36
68822;BME280;55834;50.870;4.606;2023-03-18T08:42:34;100325.94;;;11.57;58.39
68822;BME280;55834;50.870;4.606;2023-03-18T08:44:59;100328.59;;;11.79;57.84
68822;BME280;55834;50.870;4.606;2023-03-18T08:47:24;100330.78;;;11.89;57.18
68822;BME280;55834;50.870;4.606;2023-03-18T08:49:50;100327.88;;;11.28;58.51
68822;BME280;55834;50.870;4.606;2023-03-18T08:52:16;100325.31;;;11.26;58.49
68822;BME280;55834;50.870;4.606;2023-03-18T08:54:42;100331.09;;;11.60;59.12
68822;BME280;55834;50.870;4.606;2023-03-18T08:57:07;100324.19;;;11.08;58.64
68822;BME280;55834;50.870;4.606;2023-03-18T08:59:33;100322.31;;;11.12;58.47
68822;BME280;55834;50.870;4.606;2023-03-18T09:01:58;100311.78;;;11.34;58.76
68822;BME280;55834;50.870;4.606;2023-03-18T09:04:24;100313.44;;;11.37;57.63
68822;BME280;55834;50.870;4.606;2023-03-18T09:06:50;100311.50;;;11.42;57.27
68822;BME280;55834;50.870;4.606;2023-03-18T09:09:15;100311.13;;;11.74;56.48
68822;BME280;55834;50.870;4.606;2023-03-18T09:11:41;100307.06;;;11.42;57.46
68822;BME280;55834;50.870;4.606;2023-03-18T09:14:06;100314.59;;;11.53;57.67
68822;BME280;55834;50.870;4.606;2023-03-18T09:16:32;100318.84;;;12.01;57.85
68822;BME280;55834;50.870;4.606;2023-03-18T09:18:57;100319.88;;;11.53;57.27
68822;BME280;55834;50.870;4.606;2023-03-18T09:21:23;100322.81;;;11.91;57.59
68822;BME280;55834;50.870;4.606;2023-03-18T09:23:48;100319.84;;;11.77;57.37
68822;BME280;55834;50.870;4.606;2023-03-18T09:26:15;100320.50;;;12.04;56.00
68822;BME280;55834;50.870;4.606;2023-03-18T09:28:40;100319.03;;;11.74;57.64
68822;BME280;55834;50.870;4.606;2023-03-18T09:31:06;100317.00;;;12.03;57.09
68822;BME280;55834;50.870;4.606;2023-03-18T09:33:31;100310.44;;;12.13;56.66
68822;BME280;55834;50.870;4.606;2023-03-18T09:35:57;100316.78;;;12.30;55.16
68822;BME280;55834;50.870;4.606;2023-03-18T09:38:22;100321.81;;;11.48;57.18
68822;BME280;55834;50.870;4.606;2023-03-18T09:43:32;100314.13;;;11.65;57.36
68822;BME280;55834;50.870;4.606;2023-03-18T09:46:08;100320.84;;;11.96;56.57
68822;BME280;55834;50.870;4.606;2023-03-18T09:48:47;100317.75;;;12.07;56.64
68822;BME280;55834;50.870;4.606;2023-03-18T09:51:46;100317.00;;;12.03;55.82
68822;BME280;55834;50.870;4.606;2023-03-18T09:54:34;100319.81;;;12.20;56.63
68822;BME280;55834;50.870;4.606;2023-03-18T09:57:04;100328.81;;;11.94;55.43
68822;BME280;55834;50.870;4.606;2023-03-18T09:59:37;100323.97;;;12.06;55.69
68822;BME280;55834;50.870;4.606;2023-03-18T10:02:07;100340.84;;;12.24;54.67
68822;BME280;55834;50.870;4.606;2023-03-18T10:05:12;100352.31;;;11.58;56.43
68822;BME280;55834;50.870;4.606;2023-03-18T10:07:41;100353.81;;;10.93;57.14
68822;BME280;55834;50.870;4.606;2023-03-18T10:10:23;100334.31;;;11.44;56.72
68822;BME280;55834;50.870;4.606;2023-03-18T10:12:54;100340.38;;;11.92;55.33
68822;BME280;55834;50.870;4.606;2023-03-18T10:18:03;100347.00;;;12.24;54.50
68822;BME280;55834;50.870;4.606;2023-03-18T10:20:51;100350.38;;;12.07;54.36
68822;BME280;55834;50.870;4.606;2023-03-18T10:25:58;100360.00;;;11.86;54.56
68822;BME280;55834;50.870;4.606;2023-03-18T10:28:38;100367.16;;;11.37;55.81
68822;BME280;55834;50.870;4.606;2023-03-18T10:36:52;100365.81;;;11.96;54.53
68822;BME280;55834;50.870;4.606;2023-03-18T10:39:22;100368.31;;;12.21;53.72
68822;BME280;55834;50.870;4.606;2023-03-18T10:41:51;100371.81;;;11.54;54.81
68822;BME280;55834;50.870;4.606;2023-03-18T10:44:25;100378.81;;;11.32;55.32
68822;BME280;55834;50.870;4.606;2023-03-18T10:46:58;100376.66;;;11.43;56.25
68822;BME280;55834;50.870;4.606;2023-03-18T10:49:28;100375.75;;;11.67;55.03
68822;BME280;55834;50.870;4.606;2023-03-18T10:57:02;100379.75;;;11.78;55.38
68822;BME280;55834;50.870;4.606;2023-03-18T10:59:28;100378.91;;;11.77;54.06
68822;BME280;55834;50.870;4.606;2023-03-18T11:02:01;100377.56;;;11.89;55.36
68822;BME280;55834;50.870;4.606;2023-03-18T11:04:31;100381.09;;;11.66;55.05
68822;BME280;55834;50.870;4.606;2023-03-18T11:07:02;100375.41;;;11.53;55.43
68822;BME280;55834;50.870;4.606;2023-03-18T11:10:09;100377.63;;;11.40;55.71
68822;BME280;55834;50.870;4.606;2023-03-18T11:13:16;100370.56;;;11.88;54.40
68822;BME280;55834;50.870;4.606;2023-03-18T11:15:48;100372.50;;;11.83;54.87
68822;BME280;55834;50.870;4.606;2023-03-18T11:18:16;100371.66;;;12.04;54.34
68822;BME280;55834;50.870;4.606;2023-03-18T11:20:43;100375.16;;;11.36;55.23
68822;BME280;55834;50.870;4.606;2023-03-18T11:23:17;100380.63;;;11.78;54.71
68822;BME280;55834;50.870;4.606;2023-03-18T11:25:45;100377.69;;;12.08;54.73
68822;BME280;55834;50.870;4.606;2023-03-18T11:28:27;100374.25;;;11.37;56.14
68822;BME280;55834;50.870;4.606;2023-03-18T11:30:56;100370.66;;;11.85;55.29
68822;BME280;55834;50.870;4.606;2023-03-18T11:33:29;100374.19;;;11.85;55.41
68822;BME280;55834;50.870;4.606;2023-03-18T11:36:04;100370.31;;;12.16;54.52
68822;BME280;55834;50.870;4.606;2023-03-18T11:38:32;100364.84;;;12.63;54.08
68822;BME280;55834;50.870;4.606;2023-03-18T11:41:15;100372.06;;;12.80;53.68
68822;BME280;55834;50.870;4.606;2023-03-18T11:44:13;100366.22;;;12.72;53.69
68822;BME280;55834;50.870;4.606;2023-03-18T11:46:49;100371.00;;;12.63;53.96
68822;BME280;55834;50.870;4.606;2023-03-18T11:49:20;100368.34;;;12.84;52.39
68822;BME280;55834;50.870;4.606;2023-03-18T11:55:00;100354.44;;;12.58;53.09
68822;BME280;55834;50.870;4.606;2023-03-18T12:00:13;100355.34;;;12.57;53.63
68822;BME280;55834;50.870;4.606;2023-03-18T12:12:28;100340.03;;;13.05;52.25
68822;BME280;55834;50.870;4.606;2023-03-18T12:20:50;100343.94;;;13.92;49.87
68822;BME280;55834;50.870;4.606;2023-03-18T12:26:15;100338.44;;;13.40;50.89
68822;BME280;55834;50.870;4.606;2023-03-18T12:34:16;100333.25;;;13.37;50.05
68822;BME280;55834;50.870;4.606;2023-03-18T12:37:02;100338.38;;;12.82;51.46
68822;BME280;55834;50.870;4.606;2023-03-18T12:39:46;100335.09;;;13.56;50.68
68822;BME280;55834;50.870;4.606;2023-03-18T12:42:22;100327.13;;;13.92;50.26
68822;BME280;55834;50.870;4.606;2023-03-18T12:44:58;100328.47;;;13.64;49.08
68822;BME280;55834;50.870;4.606;2023-03-18T12:47:30;100323.16;;;14.00;49.43
68822;BME280;55834;50.870;4.606;2023-03-18T12:50:26;100328.47;;;14.00;48.90
68822;BME280;55834;50.870;4.606;2023-03-18T12:53:02;100328.56;;;13.99;50.01
68822;BME280;55834;50.870;4.606;2023-03-18T12:55:32;100326.72;;;13.82;49.64
68822;BME280;55834;50.870;4.606;2023-03-18T12:58:06;100325.47;;;13.72;48.58
68822;BME280;55834;50.870;4.606;2023-03-18T13:00:48;100319.00;;;14.31;47.91
68822;BME280;55834;50.870;4.606;2023-03-18T13:03:33;100319.69;;;14.35;46.55
68822;BME280;55834;50.870;4.606;2023-03-18T13:06:14;100317.00;;;14.54;45.94
68822;BME280;55834;50.870;4.606;2023-03-18T13:11:44;100305.50;;;15.04;45.32
68822;BME280;55834;50.870;4.606;2023-03-18T13:16:57;100299.84;;;14.77;46.86
68822;BME280;55834;50.870;4.606;2023-03-18T13:19:23;100308.69;;;14.42;46.42
68822;BME280;55834;50.870;4.606;2023-03-18T13:35:53;100303.63;;;14.55;45.39
68822;BME280;55834;50.870;4.606;2023-03-18T13:44:03;100303.44;;;15.09;42.75
68822;BME280;55834;50.870;4.606;2023-03-18T13:46:31;100320.94;;;14.28;43.31
68822;BME280;55834;50.870;4.606;2023-03-18T13:49:00;100308.72;;;14.06;44.66
68822;BME280;55834;50.870;4.606;2023-03-18T13:53:56;100310.88;;;13.43;46.04
68822;BME280;55834;50.870;4.606;2023-03-18T14:04:48;100310.53;;;13.50;46.51
68822;BME280;55834;50.870;4.606;2023-03-18T14:07:16;100303.22;;;13.37;45.66
68822;BME280;55834;50.870;4.606;2023-03-18T14:15:36;100291.59;;;14.31;43.24
68822;BME280;55834;50.870;4.606;2023-03-18T14:18:02;100300.06;;;14.03;43.74
68822;BME280;55834;50.870;4.606;2023-03-18T14:20:38;100299.75;;;13.91;44.65
68822;BME280;55834;50.870;4.606;2023-03-18T14:25:48;100281.34;;;14.58;44.15
68822;BME280;55834;50.870;4.606;2023-03-18T14:28:21;100282.84;;;14.63;43.41
68822;BME280;55834;50.870;4.606;2023-03-18T14:30:54;100281.88;;;13.95;44.42
68822;BME280;55834;50.870;4.606;2023-03-18T14:35:47;100279.94;;;13.98;43.03
68822;BME280;55834;50.870;4.606;2023-03-18T14:38:18;100282.91;;;14.10;43.86
68822;BME280;55834;50.870;4.606;2023-03-18T14:40:46;100275.88;;;14.43;43.51